sensor_id;sensor_type;location;lat;lon;timestamp;temperature;humidity
18091;DHT22;9172;49.948;9.208;2023-06-10T00:00:10;20.50;97.40
18091;DHT22;9172;49.948;9.208;2023-06-10T00:02:40;20.50;97.50
18091;DHT22;9172;49.948;9.208;2023-06-10T00:05:10;20.50;97.50
18091;DHT22;9172;49.948;9.208;2023-06-10T00:07:38;20.50;97.50
18091;DHT22;9172;49.948;9.208;2023-06-10T00:10:09;20.40;97.50
18091;DHT22;9172;49.948;9.208;2023-06-10T00:12:39;20.40;97.50
18091;DHT22;9172;49.948;9.208;2023-06-10T00:15:10;20.50;97.50
18091;DHT22;9172;49.948;9.208;2023-06-10T00:17:41;20.40;97.60
18091;DHT22;9172;49.948;9.208;2023-06-10T00:20:12;20.30;97.60
18091;DHT22;9172;49.948;9.208;2023-06-10T00:22:41;20.20;97.60
18091;DHT22;9172;49.948;9.208;2023-06-10T00:25:11;20.20;97.80
18091;DHT22;9172;49.948;9.208;2023-06-10T00:27:41;20.10;98.30
18091;DHT22;9172;49.948;9.208;2023-06-10T00:30:11;20.10;98.00
18091;DHT22;9172;49.948;9.208;2023-06-10T00:32:41;20.10;97.90
18091;DHT22;9172;49.948;9.208;2023-06-10T00:35:10;20.00;98.00
18091;DHT22;9172;49.948;9.208;2023-06-10T00:37:38;20.00;98.10
18091;DHT22;9172;49.948;9.208;2023-06-10T00:40:09;20.00;98.10
18091;DHT22;9172;49.948;9.208;2023-06-10T00:42:38;20.10;97.80
18091;DHT22;9172;49.948;9.208;2023-06-10T00:45:07;20.10;97.70
18091;DHT22;9172;49.948;9.208;2023-06-10T00:47:36;20.10;97.70
18091;DHT22;9172;49.948;9.208;2023-06-10T00:50:08;20.10;97.80
18091;DHT22;9172;49.948;9.208;2023-06-10T00:52:37;20.00;97.80
18091;DHT22;9172;49.948;9.208;2023-06-10T00:55:07;20.00;97.80
18091;DHT22;9172;49.948;9.208;2023-06-10T00:57:37;20.00;97.70
18091;DHT22;9172;49.948;9.208;2023-06-10T01:00:08;20.00;97.70
18091;DHT22;9172;49.948;9.208;2023-06-10T01:02:37;20.00;97.70
18091;DHT22;9172;49.948;9.208;2023-06-10T01:05:06;20.00;97.70
18091;DHT22;9172;49.948;9.208;2023-06-10T01:07:40;19.90;97.80
18091;DHT22;9172;49.948;9.208;2023-06-10T01:10:13;19.90;97.60
18091;DHT22;9172;49.948;9.208;2023-06-10T01:12:45;20.00;97.50
18091;DHT22;9172;49.948;9.208;2023-06-10T01:15:16;20.00;97.40
18091;DHT22;9172;49.948;9.208;2023-06-10T01:17:56;20.00;97.30
18091;DHT22;9172;49.948;9.208;2023-06-10T01:20:25;20.10;97.40
18091;DHT22;9172;49.948;9.208;2023-06-10T01:22:55;20.00;97.30
18091;DHT22;9172;49.948;9.208;2023-06-10T01:25:26;20.00;97.20
18091;DHT22;9172;49.948;9.208;2023-06-10T01:27:59;20.10;97.20
18091;DHT22;9172;49.948;9.208;2023-06-10T01:30:29;20.10;97.20
18091;DHT22;9172;49.948;9.208;2023-06-10T01:33:02;20.00;97.20
18091;DHT22;9172;49.948;9.208;2023-06-10T01:35:33;20.00;97.30
18091;DHT22;9172;49.948;9.208;2023-06-10T01:38:02;20.00;97.30
18091;DHT22;9172;49.948;9.208;2023-06-10T01:40:31;19.90;97.30
18091;DHT22;9172;49.948;9.208;2023-06-10T01:43:00;19.90;97.40
18091;DHT22;9172;49.948;9.208;2023-06-10T01:45:30;19.90;97.30
18091;DHT22;9172;49.948;9.208;2023-06-10T01:47:59;19.90;97.50
18091;DHT22;9172;49.948;9.208;2023-06-10T01:50:27;19.80;97.40
18091;DHT22;9172;49.948;9.208;2023-06-10T01:52:58;19.80;97.60
18091;DHT22;9172;49.948;9.208;2023-06-10T01:55:27;19.80;97.70
18091;DHT22;9172;49.948;9.208;2023-06-10T01:57:57;19.80;97.90
18091;DHT22;9172;49.948;9.208;2023-06-10T02:00:27;19.80;97.90
18091;DHT22;9172;49.948;9.208;2023-06-10T02:02:57;19.80;97.90
18091;DHT22;9172;49.948;9.208;2023-06-10T02:05:26;19.70;97.80
18091;DHT22;9172;49.948;9.208;2023-06-10T02:07:55;19.70;97.80
18091;DHT22;9172;49.948;9.208;2023-06-10T02:10:23;19.70;97.80
18091;DHT22;9172;49.948;9.208;2023-06-10T02:12:53;19.70;97.80
18091;DHT22;9172;49.948;9.208;2023-06-10T02:15:23;19.70;97.80
18091;DHT22;9172;49.948;9.208;2023-06-10T02:17:52;19.70;97.80
18091;DHT22;9172;49.948;9.208;2023-06-10T02:20:22;19.70;97.80
18091;DHT22;9172;49.948;9.208;2023-06-10T02:22:51;19.70;97.70
18091;DHT22;9172;49.948;9.208;2023-06-10T02:25:20;19.70;97.60
18091;DHT22;9172;49.948;9.208;2023-06-10T02:27:49;19.70;97.50
18091;DHT22;9172;49.948;9.208;2023-06-10T02:30:19;19.70;97.60
18091;DHT22;9172;49.948;9.208;2023-06-10T02:32:48;19.60;97.70
18091;DHT22;9172;49.948;9.208;2023-06-10T02:35:18;19.60;97.70
18091;DHT22;9172;49.948;9.208;2023-06-10T02:37:46;19.60;97.80
18091;DHT22;9172;49.948;9.208;2023-06-10T02:40:16;19.60;97.70
18091;DHT22;9172;49.948;9.208;2023-06-10T02:42:44;19.60;97.60
18091;DHT22;9172;49.948;9.208;2023-06-10T02:45:13;19.50;97.60
18091;DHT22;9172;49.948;9.208;2023-06-10T02:47:42;19.60;97.60
18091;DHT22;9172;49.948;9.208;2023-06-10T02:50:12;19.50;97.60
18091;DHT22;9172;49.948;9.208;2023-06-10T02:52:41;19.50;97.50
18091;DHT22;9172;49.948;9.208;2023-06-10T02:55:10;19.50;97.40
18091;DHT22;9172;49.948;9.208;2023-06-10T02:57:39;19.50;97.60
18091;DHT22;9172;49.948;9.208;2023-06-10T03:00:10;19.40;97.70
18091;DHT22;9172;49.948;9.208;2023-06-10T03:02:39;19.40;97.70
18091;DHT22;9172;49.948;9.208;2023-06-10T03:05:09;19.40;97.70
18091;DHT22;9172;49.948;9.208;2023-06-10T03:07:38;19.40;98.00
18091;DHT22;9172;49.948;9.208;2023-06-10T03:10:08;19.40;97.70
18091;DHT22;9172;49.948;9.208;2023-06-10T03:12:38;19.30;97.80
18091;DHT22;9172;49.948;9.208;2023-06-10T03:15:09;19.20;97.80
18091;DHT22;9172;49.948;9.208;2023-06-10T03:17:38;19.20;97.80
18091;DHT22;9172;49.948;9.208;2023-06-10T03:20:09;19.20;97.90
18091;DHT22;9172;49.948;9.208;2023-06-10T03:22:38;19.20;97.90
18091;DHT22;9172;49.948;9.208;2023-06-10T03:25:08;19.20;98.00
18091;DHT22;9172;49.948;9.208;2023-06-10T03:27:39;19.20;98.20
18091;DHT22;9172;49.948;9.208;2023-06-10T03:30:10;19.20;97.90
18091;DHT22;9172;49.948;9.208;2023-06-10T03:32:39;19.20;98.00
18091;DHT22;9172;49.948;9.208;2023-06-10T03:35:09;19.20;98.00
18091;DHT22;9172;49.948;9.208;2023-06-10T03:37:37;19.20;97.90
18091;DHT22;9172;49.948;9.208;2023-06-10T03:40:08;19.20;97.90
18091;DHT22;9172;49.948;9.208;2023-06-10T03:42:38;19.20;97.80
18091;DHT22;9172;49.948;9.208;2023-06-10T03:45:09;19.20;97.80
18091;DHT22;9172;49.948;9.208;2023-06-10T03:47:38;19.20;97.80
18091;DHT22;9172;49.948;9.208;2023-06-10T03:50:09;19.20;97.70
18091;DHT22;9172;49.948;9.208;2023-06-10T03:52:38;19.20;97.60
18091;DHT22;9172;49.948;9.208;2023-06-10T03:55:09;19.20;97.70
18091;DHT22;9172;49.948;9.208;2023-06-10T03:57:41;19.20;97.70
18091;DHT22;9172;49.948;9.208;2023-06-10T04:00:12;19.20;97.80
18091;DHT22;9172;49.948;9.208;2023-06-10T04:02:43;19.10;98.00
18091;DHT22;9172;49.948;9.208;2023-06-10T04:05:14;19.10;98.00
18091;DHT22;9172;49.948;9.208;2023-06-10T04:07:45;19.10;98.00
18091;DHT22;9172;49.948;9.208;2023-06-10T04:10:16;19.00;98.20
18091;DHT22;9172;49.948;9.208;2023-06-10T04:12:45;19.00;98.20
18091;DHT22;9172;49.948;9.208;2023-06-10T04:15:14;19.00;98.30
18091;DHT22;9172;49.948;9.208;2023-06-10T04:17:44;19.00;98.50
18091;DHT22;9172;49.948;9.208;2023-06-10T04:20:13;19.00;98.60
18091;DHT22;9172;49.948;9.208;2023-06-10T04:22:43;19.00;98.60
18091;DHT22;9172;49.948;9.208;2023-06-10T04:25:12;19.10;98.90
18091;DHT22;9172;49.948;9.208;2023-06-10T04:27:41;19.10;99.10
18091;DHT22;9172;49.948;9.208;2023-06-10T04:30:12;19.00;98.90
18091;DHT22;9172;49.948;9.208;2023-06-10T04:32:41;19.00;98.80
18091;DHT22;9172;49.948;9.208;2023-06-10T04:35:12;19.00;98.90
18091;DHT22;9172;49.948;9.208;2023-06-10T04:37:41;19.00;99.00
18091;DHT22;9172;49.948;9.208;2023-06-10T04:40:11;19.00;99.10
18091;DHT22;9172;49.948;9.208;2023-06-10T04:42:41;19.00;99.10
18091;DHT22;9172;49.948;9.208;2023-06-10T04:45:10;19.00;99.20
18091;DHT22;9172;49.948;9.208;2023-06-10T04:47:40;19.00;99.20
18091;DHT22;9172;49.948;9.208;2023-06-10T04:50:10;19.00;99.30
18091;DHT22;9172;49.948;9.208;2023-06-10T04:52:39;19.00;99.30
18091;DHT22;9172;49.948;9.208;2023-06-10T04:55:09;19.00;99.40
18091;DHT22;9172;49.948;9.208;2023-06-10T04:57:39;19.00;99.50
18091;DHT22;9172;49.948;9.208;2023-06-10T05:00:10;19.00;99.70
18091;DHT22;9172;49.948;9.208;2023-06-10T05:02:39;19.00;99.80
18091;DHT22;9172;49.948;9.208;2023-06-10T05:05:09;18.90;99.90
18091;DHT22;9172;49.948;9.208;2023-06-10T05:07:37;18.90;99.90
18091;DHT22;9172;49.948;9.208;2023-06-10T05:10:08;18.90;99.90
18091;DHT22;9172;49.948;9.208;2023-06-10T05:12:37;18.90;99.90
18091;DHT22;9172;49.948;9.208;2023-06-10T05:15:08;18.80;99.90
18091;DHT22;9172;49.948;9.208;2023-06-10T05:17:36;18.80;99.90
18091;DHT22;9172;49.948;9.208;2023-06-10T05:20:07;18.80;99.90
18091;DHT22;9172;49.948;9.208;2023-06-10T05:22:37;18.90;99.90
18091;DHT22;9172;49.948;9.208;2023-06-10T05:25:07;19.00;99.90
18091;DHT22;9172;49.948;9.208;2023-06-10T05:27:37;19.10;99.90
18091;DHT22;9172;49.948;9.208;2023-06-10T05:30:09;19.20;99.90
18091;DHT22;9172;49.948;9.208;2023-06-10T05:32:38;19.30;99.90
18091;DHT22;9172;49.948;9.208;2023-06-10T05:35:07;19.50;99.90
18091;DHT22;9172;49.948;9.208;2023-06-10T05:37:36;19.60;99.90
18091;DHT22;9172;49.948;9.208;2023-06-10T05:40:07;19.70;99.90
18091;DHT22;9172;49.948;9.208;2023-06-10T05:42:35;19.90;99.90
18091;DHT22;9172;49.948;9.208;2023-06-10T05:45:07;20.00;99.90
18091;DHT22;9172;49.948;9.208;2023-06-10T05:47:36;20.10;99.90
18091;DHT22;9172;49.948;9.208;2023-06-10T05:50:07;20.20;99.90
18091;DHT22;9172;49.948;9.208;2023-06-10T05:52:37;20.30;99.90
18091;DHT22;9172;49.948;9.208;2023-06-10T05:55:09;20.40;99.90
18091;DHT22;9172;49.948;9.208;2023-06-10T05:57:40;20.50;99.90
18091;DHT22;9172;49.948;9.208;2023-06-10T06:00:12;20.60;99.90
18091;DHT22;9172;49.948;9.208;2023-06-10T06:02:41;20.70;99.90
18091;DHT22;9172;49.948;9.208;2023-06-10T06:05:10;20.80;99.80
18091;DHT22;9172;49.948;9.208;2023-06-10T06:07:38;20.90;99.90
18091;DHT22;9172;49.948;9.208;2023-06-10T06:12:46;21.00;99.90
18091;DHT22;9172;49.948;9.208;2023-06-10T06:15:15;21.10;99.40
18091;DHT22;9172;49.948;9.208;2023-06-10T06:17:45;21.10;99.40
18091;DHT22;9172;49.948;9.208;2023-06-10T06:20:14;21.10;99.80
18091;DHT22;9172;49.948;9.208;2023-06-10T06:22:43;21.20;99.80
18091;DHT22;9172;49.948;9.208;2023-06-10T06:25:11;21.30;99.20
18091;DHT22;9172;49.948;9.208;2023-06-10T06:27:41;21.40;99.40
18091;DHT22;9172;49.948;9.208;2023-06-10T06:30:11;21.50;99.30
18091;DHT22;9172;49.948;9.208;2023-06-10T06:32:41;21.50;99.00
18091;DHT22;9172;49.948;9.208;2023-06-10T06:35:09;21.70;98.90
18091;DHT22;9172;49.948;9.208;2023-06-10T06:37:38;21.70;98.90
18091;DHT22;9172;49.948;9.208;2023-06-10T06:40:09;21.80;98.90
18091;DHT22;9172;49.948;9.208;2023-06-10T06:42:39;21.90;98.60
18091;DHT22;9172;49.948;9.208;2023-06-10T06:45:09;22.00;98.80
18091;DHT22;9172;49.948;9.208;2023-06-10T06:47:38;22.10;98.80
18091;DHT22;9172;49.948;9.208;2023-06-10T06:50:08;22.30;98.40
18091;DHT22;9172;49.948;9.208;2023-06-10T06:52:37;22.50;98.20
18091;DHT22;9172;49.948;9.208;2023-06-10T06:55:07;22.60;97.70
18091;DHT22;9172;49.948;9.208;2023-06-10T06:57:36;22.70;97.70
18091;DHT22;9172;49.948;9.208;2023-06-10T07:00:07;22.80;97.40
18091;DHT22;9172;49.948;9.208;2023-06-10T07:02:37;22.90;97.30
18091;DHT22;9172;49.948;9.208;2023-06-10T07:05:07;23.00;97.50
18091;DHT22;9172;49.948;9.208;2023-06-10T07:07:36;23.10;97.50
18091;DHT22;9172;49.948;9.208;2023-06-10T07:10:07;23.20;97.20
18091;DHT22;9172;49.948;9.208;2023-06-10T07:12:37;23.20;96.90
18091;DHT22;9172;49.948;9.208;2023-06-10T07:15:08;23.20;96.50
18091;DHT22;9172;49.948;9.208;2023-06-10T07:17:37;23.30;96.40
18091;DHT22;9172;49.948;9.208;2023-06-10T07:20:08;23.30;95.90
18091;DHT22;9172;49.948;9.208;2023-06-10T07:22:36;23.20;96.50
18091;DHT22;9172;49.948;9.208;2023-06-10T07:25:08;23.10;96.00
18091;DHT22;9172;49.948;9.208;2023-06-10T07:27:36;23.20;96.60
18091;DHT22;9172;49.948;9.208;2023-06-10T07:30:08;23.40;96.60
18091;DHT22;9172;49.948;9.208;2023-06-10T07:32:36;23.60;96.40
18091;DHT22;9172;49.948;9.208;2023-06-10T07:35:08;23.80;96.50
18091;DHT22;9172;49.948;9.208;2023-06-10T07:37:37;24.00;96.50
18091;DHT22;9172;49.948;9.208;2023-06-10T07:40:08;24.30;96.10
18091;DHT22;9172;49.948;9.208;2023-06-10T07:42:37;24.20;94.90
18091;DHT22;9172;49.948;9.208;2023-06-10T07:45:07;24.20;95.60
18091;DHT22;9172;49.948;9.208;2023-06-10T07:47:37;24.20;95.40
18091;DHT22;9172;49.948;9.208;2023-06-10T07:50:10;24.20;96.00
18091;DHT22;9172;49.948;9.208;2023-06-10T07:52:38;24.30;95.90
18091;DHT22;9172;49.948;9.208;2023-06-10T07:55:08;24.30;95.40
18091;DHT22;9172;49.948;9.208;2023-06-10T07:57:38;24.30;95.60
18091;DHT22;9172;49.948;9.208;2023-06-10T08:00:11;24.30;95.50
18091;DHT22;9172;49.948;9.208;2023-06-10T08:02:39;24.40;95.90
18091;DHT22;9172;49.948;9.208;2023-06-10T08:05:09;24.80;96.30
18091;DHT22;9172;49.948;9.208;2023-06-10T08:07:37;24.90;95.60
18091;DHT22;9172;49.948;9.208;2023-06-10T08:10:08;25.10;95.20
18091;DHT22;9172;49.948;9.208;2023-06-10T08:12:37;25.00;94.80
18091;DHT22;9172;49.948;9.208;2023-06-10T08:15:10;25.00;94.30
18091;DHT22;9172;49.948;9.208;2023-06-10T08:17:39;25.30;94.00
18091;DHT22;9172;49.948;9.208;2023-06-10T08:20:09;25.40;93.90
18091;DHT22;9172;49.948;9.208;2023-06-10T08:22:38;25.50;93.90
18091;DHT22;9172;49.948;9.208;2023-06-10T08:25:09;25.60;93.60
18091;DHT22;9172;49.948;9.208;2023-06-10T08:27:38;25.60;93.60
18091;DHT22;9172;49.948;9.208;2023-06-10T08:30:09;25.70;93.10
18091;DHT22;9172;49.948;9.208;2023-06-10T08:32:38;25.60;92.40
18091;DHT22;9172;49.948;9.208;2023-06-10T08:35:08;25.60;93.00
18091;DHT22;9172;49.948;9.208;2023-06-10T08:37:37;25.70;93.20
18091;DHT22;9172;49.948;9.208;2023-06-10T08:40:09;25.80;92.60
18091;DHT22;9172;49.948;9.208;2023-06-10T08:42:42;25.90;92.80
18091;DHT22;9172;49.948;9.208;2023-06-10T08:45:12;26.00;92.40
18091;DHT22;9172;49.948;9.208;2023-06-10T08:47:44;26.10;92.30
18091;DHT22;9172;49.948;9.208;2023-06-10T08:50:13;26.10;92.60
18091;DHT22;9172;49.948;9.208;2023-06-10T08:52:46;26.10;92.70
18091;DHT22;9172;49.948;9.208;2023-06-10T08:55:19;26.20;92.40
18091;DHT22;9172;49.948;9.208;2023-06-10T08:57:51;26.20;92.10
18091;DHT22;9172;49.948;9.208;2023-06-10T09:00:22;26.20;92.40
18091;DHT22;9172;49.948;9.208;2023-06-10T09:02:51;26.30;92.00
18091;DHT22;9172;49.948;9.208;2023-06-10T09:05:20;26.30;92.20
18091;DHT22;9172;49.948;9.208;2023-06-10T09:07:50;26.40;92.60
18091;DHT22;9172;49.948;9.208;2023-06-10T09:10:19;26.50;92.10
18091;DHT22;9172;49.948;9.208;2023-06-10T09:12:48;26.60;91.80
18091;DHT22;9172;49.948;9.208;2023-06-10T09:15:18;26.60;91.40
18091;DHT22;9172;49.948;9.208;2023-06-10T09:17:46;26.60;91.90
18091;DHT22;9172;49.948;9.208;2023-06-10T09:20:16;26.60;92.30
18091;DHT22;9172;49.948;9.208;2023-06-10T09:22:45;26.70;91.70
18091;DHT22;9172;49.948;9.208;2023-06-10T09:25:15;26.80;91.70
18091;DHT22;9172;49.948;9.208;2023-06-10T09:27:47;26.70;91.50
18091;DHT22;9172;49.948;9.208;2023-06-10T09:30:28;26.80;91.80
18091;DHT22;9172;49.948;9.208;2023-06-10T09:32:58;26.90;91.50
18091;DHT22;9172;49.948;9.208;2023-06-10T09:35:28;27.00;91.70
18091;DHT22;9172;49.948;9.208;2023-06-10T09:37:59;27.00;91.40
18091;DHT22;9172;49.948;9.208;2023-06-10T09:40:30;27.20;91.50
18091;DHT22;9172;49.948;9.208;2023-06-10T09:43:00;27.30;91.50
18091;DHT22;9172;49.948;9.208;2023-06-10T09:45:30;27.40;91.40
18091;DHT22;9172;49.948;9.208;2023-06-10T09:47:59;27.40;90.20
18091;DHT22;9172;49.948;9.208;2023-06-10T09:50:28;27.60;90.80
18091;DHT22;9172;49.948;9.208;2023-06-10T09:53:00;27.40;90.00
18091;DHT22;9172;49.948;9.208;2023-06-10T09:55:33;27.30;90.70
18091;DHT22;9172;49.948;9.208;2023-06-10T09:58:04;27.40;91.40
18091;DHT22;9172;49.948;9.208;2023-06-10T10:00:34;27.60;91.00
18091;DHT22;9172;49.948;9.208;2023-06-10T10:03:02;27.70;90.30
18091;DHT22;9172;49.948;9.208;2023-06-10T10:05:32;27.80;90.30
18091;DHT22;9172;49.948;9.208;2023-06-10T10:08:02;27.90;90.50
18091;DHT22;9172;49.948;9.208;2023-06-10T10:10:31;28.00;90.90
18091;DHT22;9172;49.948;9.208;2023-06-10T10:13:01;28.20;90.50
18091;DHT22;9172;49.948;9.208;2023-06-10T10:15:32;28.30;89.40
18091;DHT22;9172;49.948;9.208;2023-06-10T10:18:06;28.30;90.10
18091;DHT22;9172;49.948;9.208;2023-06-10T10:20:39;28.40;90.00
18091;DHT22;9172;49.948;9.208;2023-06-10T10:23:09;28.30;89.80
18091;DHT22;9172;49.948;9.208;2023-06-10T10:25:42;28.20;89.20
18091;DHT22;9172;49.948;9.208;2023-06-10T10:28:11;28.10;90.10
18091;DHT22;9172;49.948;9.208;2023-06-10T10:30:42;28.20;90.20
18091;DHT22;9172;49.948;9.208;2023-06-10T10:33:13;28.20;88.30
18091;DHT22;9172;49.948;9.208;2023-06-10T10:35:44;28.20;88.40
18091;DHT22;9172;49.948;9.208;2023-06-10T10:38:14;28.20;87.80
18091;DHT22;9172;49.948;9.208;2023-06-10T10:40:44;28.20;88.60
18091;DHT22;9172;49.948;9.208;2023-06-10T10:43:14;28.40;88.60
18091;DHT22;9172;49.948;9.208;2023-06-10T10:45:46;28.40;86.90
18091;DHT22;9172;49.948;9.208;2023-06-10T10:48:15;28.50;87.60
18091;DHT22;9172;49.948;9.208;2023-06-10T10:50:44;28.40;89.70
18091;DHT22;9172;49.948;9.208;2023-06-10T10:53:19;28.50;88.40
18091;DHT22;9172;49.948;9.208;2023-06-10T10:55:58;28.50;86.70
18091;DHT22;9172;49.948;9.208;2023-06-10T10:58:26;28.60;86.90
18091;DHT22;9172;49.948;9.208;2023-06-10T11:00:56;28.10;87.30
18091;DHT22;9172;49.948;9.208;2023-06-10T11:03:28;28.10;88.00
18091;DHT22;9172;49.948;9.208;2023-06-10T11:05:58;28.20;86.80
18091;DHT22;9172;49.948;9.208;2023-06-10T11:08:47;28.40;87.50
18091;DHT22;9172;49.948;9.208;2023-06-10T11:11:21;28.60;87.40
18091;DHT22;9172;49.948;9.208;2023-06-10T11:13:59;28.60;87.00
18091;DHT22;9172;49.948;9.208;2023-06-10T11:16:30;28.70;86.60
18091;DHT22;9172;49.948;9.208;2023-06-10T11:19:00;28.70;87.30
18091;DHT22;9172;49.948;9.208;2023-06-10T11:21:28;28.80;87.30
18091;DHT22;9172;49.948;9.208;2023-06-10T11:24:00;28.80;85.30
18091;DHT22;9172;49.948;9.208;2023-06-10T11:26:33;28.90;86.00
18091;DHT22;9172;49.948;9.208;2023-06-10T11:29:07;29.10;86.00
18091;DHT22;9172;49.948;9.208;2023-06-10T11:31:49;29.10;85.40
18091;DHT22;9172;49.948;9.208;2023-06-10T11:34:25;29.10;85.70
18091;DHT22;9172;49.948;9.208;2023-06-10T11:36:55;29.00;85.00
18091;DHT22;9172;49.948;9.208;2023-06-10T11:39:25;28.90;85.90
18091;DHT22;9172;49.948;9.208;2023-06-10T11:41:55;28.80;85.20
18091;DHT22;9172;49.948;9.208;2023-06-10T11:44:27;28.50;85.20
18091;DHT22;9172;49.948;9.208;2023-06-10T11:46:57;28.40;85.80
18091;DHT22;9172;49.948;9.208;2023-06-10T11:49:25;28.50;85.50
18091;DHT22;9172;49.948;9.208;2023-06-10T11:51:54;28.50;86.30
18091;DHT22;9172;49.948;9.208;2023-06-10T11:54:23;28.50;85.50
18091;DHT22;9172;49.948;9.208;2023-06-10T11:56:57;28.50;85.00
18091;DHT22;9172;49.948;9.208;2023-06-10T11:59:29;28.50;85.00
18091;DHT22;9172;49.948;9.208;2023-06-10T12:01:58;28.60;85.20
18091;DHT22;9172;49.948;9.208;2023-06-10T12:04:26;28.60;85.50
18091;DHT22;9172;49.948;9.208;2023-06-10T12:06:55;28.70;87.20
18091;DHT22;9172;49.948;9.208;2023-06-10T12:09:25;28.70;84.90
18091;DHT22;9172;49.948;9.208;2023-06-10T12:11:58;28.60;85.30
18091;DHT22;9172;49.948;9.208;2023-06-10T12:14:51;28.50;85.60
18091;DHT22;9172;49.948;9.208;2023-06-10T12:17:22;28.60;85.90
18091;DHT22;9172;49.948;9.208;2023-06-10T12:19:51;28.70;86.80
18091;DHT22;9172;49.948;9.208;2023-06-10T12:22:19;28.70;85.30
18091;DHT22;9172;49.948;9.208;2023-06-10T12:24:59;28.50;86.10
18091;DHT22;9172;49.948;9.208;2023-06-10T12:27:29;28.40;84.80
18091;DHT22;9172;49.948;9.208;2023-06-10T12:30:00;28.40;86.40
18091;DHT22;9172;49.948;9.208;2023-06-10T12:32:37;28.40;86.30
18091;DHT22;9172;49.948;9.208;2023-06-10T12:35:09;28.50;86.00
18091;DHT22;9172;49.948;9.208;2023-06-10T12:37:38;28.60;85.50
18091;DHT22;9172;49.948;9.208;2023-06-10T12:40:09;28.50;85.50
18091;DHT22;9172;49.948;9.208;2023-06-10T12:42:38;28.40;85.40
18091;DHT22;9172;49.948;9.208;2023-06-10T12:45:08;28.20;84.60
18091;DHT22;9172;49.948;9.208;2023-06-10T12:47:38;28.00;84.30
18091;DHT22;9172;49.948;9.208;2023-06-10T12:50:08;28.00;85.30
18091;DHT22;9172;49.948;9.208;2023-06-10T12:52:39;28.10;85.10
18091;DHT22;9172;49.948;9.208;2023-06-10T12:55:09;28.10;85.60
18091;DHT22;9172;49.948;9.208;2023-06-10T12:57:38;28.30;86.20
18091;DHT22;9172;49.948;9.208;2023-06-10T13:00:11;28.20;85.80
18091;DHT22;9172;49.948;9.208;2023-06-10T13:02:41;28.10;86.80
18091;DHT22;9172;49.948;9.208;2023-06-10T13:05:10;28.10;87.20
18091;DHT22;9172;49.948;9.208;2023-06-10T13:07:39;28.10;86.90
18091;DHT22;9172;49.948;9.208;2023-06-10T13:10:10;28.10;86.80
18091;DHT22;9172;49.948;9.208;2023-06-10T13:12:38;28.10;87.10
18091;DHT22;9172;49.948;9.208;2023-06-10T13:15:08;28.10;86.50
18091;DHT22;9172;49.948;9.208;2023-06-10T13:17:38;28.20;85.80
18091;DHT22;9172;49.948;9.208;2023-06-10T13:20:09;28.20;85.20
18091;DHT22;9172;49.948;9.208;2023-06-10T13:22:38;28.10;85.60
18091;DHT22;9172;49.948;9.208;2023-06-10T13:25:08;28.20;86.40
18091;DHT22;9172;49.948;9.208;2023-06-10T13:27:38;28.20;86.00
18091;DHT22;9172;49.948;9.208;2023-06-10T13:30:09;28.30;85.50
18091;DHT22;9172;49.948;9.208;2023-06-10T13:32:39;28.40;86.00
18091;DHT22;9172;49.948;9.208;2023-06-10T13:35:08;28.50;84.20
18091;DHT22;9172;49.948;9.208;2023-06-10T13:37:39;28.50;84.30
18091;DHT22;9172;49.948;9.208;2023-06-10T13:40:10;28.50;84.30
18091;DHT22;9172;49.948;9.208;2023-06-10T13:42:40;28.50;83.90
18091;DHT22;9172;49.948;9.208;2023-06-10T13:45:09;28.50;83.70
18091;DHT22;9172;49.948;9.208;2023-06-10T13:47:39;28.50;85.60
18091;DHT22;9172;49.948;9.208;2023-06-10T13:50:09;28.40;83.50
18091;DHT22;9172;49.948;9.208;2023-06-10T13:52:38;28.30;82.90
18091;DHT22;9172;49.948;9.208;2023-06-10T13:55:08;28.40;83.90
18091;DHT22;9172;49.948;9.208;2023-06-10T13:57:37;28.50;85.10
18091;DHT22;9172;49.948;9.208;2023-06-10T14:00:08;28.50;84.00
18091;DHT22;9172;49.948;9.208;2023-06-10T14:05:15;28.40;83.50
18091;DHT22;9172;49.948;9.208;2023-06-10T14:07:45;28.40;83.20
18091;DHT22;9172;49.948;9.208;2023-06-10T14:10:15;28.30;82.30
18091;DHT22;9172;49.948;9.208;2023-06-10T14:12:45;28.20;83.40
18091;DHT22;9172;49.948;9.208;2023-06-10T14:15:14;28.30;83.00
18091;DHT22;9172;49.948;9.208;2023-06-10T14:20:21;28.30;81.70
18091;DHT22;9172;49.948;9.208;2023-06-10T14:22:50;28.20;81.90
18091;DHT22;9172;49.948;9.208;2023-06-10T14:25:19;28.30;83.30
18091;DHT22;9172;49.948;9.208;2023-06-10T14:27:47;28.30;82.60
18091;DHT22;9172;49.948;9.208;2023-06-10T14:30:17;28.20;82.20
18091;DHT22;9172;49.948;9.208;2023-06-10T14:32:45;28.20;81.90
18091;DHT22;9172;49.948;9.208;2023-06-10T14:35:14;28.10;79.20
18091;DHT22;9172;49.948;9.208;2023-06-10T14:37:43;28.10;79.90
18091;DHT22;9172;49.948;9.208;2023-06-10T14:40:12;28.20;80.10
18091;DHT22;9172;49.948;9.208;2023-06-10T14:42:41;28.20;79.70
18091;DHT22;9172;49.948;9.208;2023-06-10T14:45:10;28.30;80.20
18091;DHT22;9172;49.948;9.208;2023-06-10T14:47:39;28.20;81.10
18091;DHT22;9172;49.948;9.208;2023-06-10T14:50:09;28.20;81.40
18091;DHT22;9172;49.948;9.208;2023-06-10T14:52:39;28.30;81.80
18091;DHT22;9172;49.948;9.208;2023-06-10T14:55:09;28.20;81.10
18091;DHT22;9172;49.948;9.208;2023-06-10T15:00:16;28.30;81.20
18091;DHT22;9172;49.948;9.208;2023-06-10T15:02:46;28.20;81.90
18091;DHT22;9172;49.948;9.208;2023-06-10T15:05:15;28.20;83.30
18091;DHT22;9172;49.948;9.208;2023-06-10T15:07:44;28.30;82.00
18091;DHT22;9172;49.948;9.208;2023-06-10T15:10:13;28.20;82.60
18091;DHT22;9172;49.948;9.208;2023-06-10T15:12:43;28.20;81.00
18091;DHT22;9172;49.948;9.208;2023-06-10T15:15:11;28.20;82.50
18091;DHT22;9172;49.948;9.208;2023-06-10T15:17:41;28.10;82.40
18091;DHT22;9172;49.948;9.208;2023-06-10T15:20:10;28.20;82.50
18091;DHT22;9172;49.948;9.208;2023-06-10T15:22:39;28.30;82.80
18091;DHT22;9172;49.948;9.208;2023-06-10T15:25:09;28.40;83.20
18091;DHT22;9172;49.948;9.208;2023-06-10T15:30:14;28.50;81.50
18091;DHT22;9172;49.948;9.208;2023-06-10T15:32:43;28.50;81.50
18091;DHT22;9172;49.948;9.208;2023-06-10T15:35:13;28.50;80.30
18091;DHT22;9172;49.948;9.208;2023-06-10T15:40:20;28.50;81.00
18091;DHT22;9172;49.948;9.208;2023-06-10T15:42:51;28.60;80.80
18091;DHT22;9172;49.948;9.208;2023-06-10T15:45:19;28.60;81.40
18091;DHT22;9172;49.948;9.208;2023-06-10T15:47:49;28.60;82.00
18091;DHT22;9172;49.948;9.208;2023-06-10T15:50:18;28.50;83.50
18091;DHT22;9172;49.948;9.208;2023-06-10T15:52:47;28.30;84.50
18091;DHT22;9172;49.948;9.208;2023-06-10T15:55:16;28.10;85.20
18091;DHT22;9172;49.948;9.208;2023-06-10T15:57:45;27.90;87.10
18091;DHT22;9172;49.948;9.208;2023-06-10T16:00:16;27.60;87.10
18091;DHT22;9172;49.948;9.208;2023-06-10T16:02:44;27.40;88.20
18091;DHT22;9172;49.948;9.208;2023-06-10T16:05:13;27.30;89.10
18091;DHT22;9172;49.948;9.208;2023-06-10T16:07:42;27.10;88.90
18091;DHT22;9172;49.948;9.208;2023-06-10T16:10:12;26.90;89.40
18091;DHT22;9172;49.948;9.208;2023-06-10T16:12:41;26.70;90.00
18091;DHT22;9172;49.948;9.208;2023-06-10T16:17:46;26.30;90.70
18091;DHT22;9172;49.948;9.208;2023-06-10T16:20:15;26.20;91.00